VKG998 ENGM-ENVA
Flight info
| Callsign | VKG998 |
|---|---|
| Flight time | N/A |
| Altitude | 26000 |
| Route | RIBBE DCT GIGNI DCT VEVOD |
| Aircraft | A321/M-SDE3FGHIRWY/LB1 |
Departure
| Time | 2026-05-03 21:17 |
|---|---|
| Airport | Oslo-Gardermoen International Airport (ENGM) |
Arrival
| Time | N/A |
|---|---|
| Airport | Trondheim Airport, Værnes (ENVA) |
| Time | Latitude | Longitude | Altitude | Speed | Heading |
|---|---|---|---|---|---|
| 2026-05-03 20:45 | 60.19552 | 11.09907 | 682 ft | 0 kts | 108° |
| 2026-05-03 21:06 | 60.19557 | 11.09877 | 681 ft | 4 kts | 114° |
| 2026-05-03 21:06 | 60.19570 | 11.09830 | 681 ft | 4 kts | 127° |
| 2026-05-03 21:06 | 60.19588 | 11.09790 | 681 ft | 4 kts | 139° |
| 2026-05-03 21:07 | 60.19609 | 11.09756 | 678 ft | 4 kts | 133° |
| 2026-05-03 21:07 | 60.19626 | 11.09715 | 680 ft | 4 kts | 134° |
| 2026-05-03 21:07 | 60.19644 | 11.09680 | 680 ft | 1 kts | 135° |
| 2026-05-03 21:07 | 60.19647 | 11.09673 | 681 ft | 0 kts | 135° |
| 2026-05-03 21:10 | 60.19642 | 11.09685 | 679 ft | 3 kts | 131° |
| 2026-05-03 21:10 | 60.19658 | 11.09735 | 680 ft | 7 kts | 21° |
| 2026-05-03 21:11 | 60.19720 | 11.09773 | 681 ft | 10 kts | 16° |
| 2026-05-03 21:11 | 60.19783 | 11.09811 | 680 ft | 10 kts | 16° |
| 2026-05-03 21:11 | 60.19864 | 11.09859 | 682 ft | 14 kts | 17° |
| 2026-05-03 21:11 | 60.19966 | 11.09916 | 682 ft | 16 kts | 16° |
| 2026-05-03 21:12 | 60.20035 | 11.09992 | 681 ft | 9 kts | 63° |
| 2026-05-03 21:12 | 60.20031 | 11.10119 | 684 ft | 11 kts | 104° |
| 2026-05-03 21:12 | 60.20008 | 11.10292 | 682 ft | 15 kts | 106° |
| 2026-05-03 21:12 | 60.19980 | 11.10499 | 681 ft | 15 kts | 104° |
| 2026-05-03 21:13 | 60.19951 | 11.10678 | 682 ft | 14 kts | 106° |
| 2026-05-03 21:13 | 60.19924 | 11.10861 | 681 ft | 13 kts | 106° |
| 2026-05-03 21:13 | 60.19897 | 11.11048 | 684 ft | 14 kts | 105° |
| 2026-05-03 21:13 | 60.19871 | 11.11234 | 684 ft | 13 kts | 106° |
| 2026-05-03 21:14 | 60.19847 | 11.11407 | 681 ft | 12 kts | 104° |
| 2026-05-03 21:14 | 60.19864 | 11.11536 | 684 ft | 8 kts | 30° |
| 2026-05-03 21:14 | 60.19921 | 11.11571 | 687 ft | 12 kts | 16° |
| 2026-05-03 21:14 | 60.20002 | 11.11618 | 689 ft | 11 kts | 15° |
| 2026-05-03 21:15 | 60.20077 | 11.11670 | 689 ft | 13 kts | 34° |
| 2026-05-03 21:15 | 60.20071 | 11.11871 | 684 ft | 18 kts | 106° |
| 2026-05-03 21:15 | 60.20038 | 11.12098 | 683 ft | 13 kts | 108° |
| 2026-05-03 21:15 | 60.19999 | 11.12178 | 681 ft | 7 kts | 185° |
| 2026-05-03 21:16 | 60.19993 | 11.12174 | 688 ft | 0 kts | 196° |
| 2026-05-03 21:16 | 60.19992 | 11.12174 | 688 ft | 1 kts | 196° |
| 2026-05-03 21:16 | 60.19897 | 11.12117 | 681 ft | 43 kts | 196° |
| 2026-05-03 21:17 | 60.19386 | 11.11824 | 686 ft | 107 kts | 196° |
| 2026-05-03 21:17 | 60.18836 | 11.11508 | 686 ft | 140 kts | 195° |
| 2026-05-03 21:17 | 60.17456 | 11.10711 | 1259 ft | 152 kts | 195° |
| 2026-05-03 21:17 | 60.16448 | 11.10165 | 1949 ft | 152 kts | 195° |
| 2026-05-03 21:18 | 60.15411 | 11.09597 | 2537 ft | 155 kts | 196° |
| 2026-05-03 21:18 | 60.14308 | 11.09057 | 2824 ft | 172 kts | 189° |
| 2026-05-03 21:18 | 60.13069 | 11.09394 | 3009 ft | 198 kts | 160° |
| 2026-05-03 21:18 | 60.11917 | 11.11207 | 3270 ft | 225 kts | 136° |
| 2026-05-03 21:19 | 60.10837 | 11.13622 | 3838 ft | 230 kts | 136° |
| 2026-05-03 21:19 | 60.09750 | 11.15974 | 4489 ft | 232 kts | 136° |
| 2026-05-03 21:19 | 60.08728 | 11.18535 | 5001 ft | 242 kts | 120° |
| 2026-05-03 21:19 | 60.08314 | 11.21852 | 5509 ft | 252 kts | 90° |
| 2026-05-03 21:20 | 60.08750 | 11.25209 | 6061 ft | 256 kts | 58° |
| 2026-05-03 21:20 | 60.09843 | 11.28036 | 6556 ft | 261 kts | 48° |
| 2026-05-03 21:20 | 60.11071 | 11.30919 | 6823 ft | 284 kts | 48° |
| 2026-05-03 21:20 | 60.12366 | 11.33999 | 7449 ft | 291 kts | 49° |
| 2026-05-03 21:21 | 60.13639 | 11.37158 | 8259 ft | 293 kts | 50° |
| 2026-05-03 21:21 | 60.14973 | 11.40318 | 8967 ft | 299 kts | 44° |
| 2026-05-03 21:21 | 60.16548 | 11.43070 | 9686 ft | 302 kts | 31° |
| 2026-05-03 21:21 | 60.18452 | 11.44790 | 10340 ft | 301 kts | 9° |
| 2026-05-03 21:22 | 60.20532 | 11.45148 | 10953 ft | 303 kts | 356° |
| 2026-05-03 21:22 | 60.22691 | 11.45131 | 11250 ft | 321 kts | 355° |
| 2026-05-03 21:22 | 60.25003 | 11.45039 | 11401 ft | 343 kts | 355° |
| 2026-05-03 21:22 | 60.27469 | 11.44957 | 11586 ft | 362 kts | 355° |
| 2026-05-03 21:23 | 60.30019 | 11.44930 | 12120 ft | 369 kts | 355° |
| 2026-05-03 21:23 | 60.32601 | 11.44960 | 12773 ft | 374 kts | 356° |
| 2026-05-03 21:23 | 60.35220 | 11.45032 | 13411 ft | 379 kts | 356° |
| 2026-05-03 21:23 | 60.37873 | 11.45126 | 13989 ft | 383 kts | 356° |
| 2026-05-03 21:24 | 60.40554 | 11.45228 | 14527 ft | 387 kts | 356° |
| 2026-05-03 21:24 | 60.43251 | 11.45329 | 15069 ft | 390 kts | 356° |
| 2026-05-03 21:24 | 60.45977 | 11.45424 | 15641 ft | 393 kts | 355° |
| 2026-05-03 21:24 | 60.48727 | 11.45509 | 16207 ft | 396 kts | 355° |
| 2026-05-03 21:25 | 60.51498 | 11.45588 | 16752 ft | 400 kts | 355° |
| 2026-05-03 21:25 | 60.54292 | 11.45676 | 17288 ft | 403 kts | 355° |
| 2026-05-03 21:25 | 60.57109 | 11.45770 | 17826 ft | 407 kts | 355° |
| 2026-05-03 21:25 | 60.59955 | 11.45865 | 18284 ft | 411 kts | 355° |
| 2026-05-03 21:26 | 60.62824 | 11.45956 | 18730 ft | 413 kts | 355° |
| 2026-05-03 21:26 | 60.65714 | 11.46045 | 19193 ft | 416 kts | 355° |
| 2026-05-03 21:26 | 60.68614 | 11.46126 | 19668 ft | 419 kts | 355° |
| 2026-05-03 21:26 | 60.71539 | 11.46212 | 20128 ft | 422 kts | 355° |
| 2026-05-03 21:27 | 60.74485 | 11.46307 | 20588 ft | 424 kts | 355° |
| 2026-05-03 21:27 | 60.77448 | 11.46399 | 21049 ft | 427 kts | 355° |
| 2026-05-03 21:27 | 60.80425 | 11.46490 | 21508 ft | 430 kts | 355° |
| 2026-05-03 21:27 | 60.83424 | 11.46583 | 21964 ft | 432 kts | 355° |
| 2026-05-03 21:28 | 60.86444 | 11.46675 | 22432 ft | 435 kts | 354° |
| 2026-05-03 21:28 | 60.89485 | 11.46768 | 22834 ft | 439 kts | 354° |
| 2026-05-03 21:28 | 60.92545 | 11.46863 | 23253 ft | 442 kts | 354° |
| 2026-05-03 21:28 | 60.95630 | 11.46963 | 23618 ft | 444 kts | 354° |
| 2026-05-03 21:29 | 60.98729 | 11.47067 | 23952 ft | 447 kts | 354° |
| 2026-05-03 21:29 | 61.01849 | 11.47168 | 24318 ft | 450 kts | 354° |
| 2026-05-03 21:29 | 61.04979 | 11.47271 | 24639 ft | 450 kts | 354° |
| 2026-05-03 21:29 | 61.08118 | 11.47367 | 24939 ft | 452 kts | 354° |
| 2026-05-03 21:30 | 61.11277 | 11.47457 | 25266 ft | 455 kts | 354° |
| 2026-05-03 21:30 | 61.14448 | 11.47552 | 25590 ft | 458 kts | 354° |
| 2026-05-03 21:30 | 61.17611 | 11.47654 | 25751 ft | 458 kts | 354° |
| 2026-05-03 21:30 | 61.20575 | 11.47760 | 25791 ft | 455 kts | 354° |
| 2026-05-03 21:31 | 61.23730 | 11.47875 | 25776 ft | 454 kts | 354° |
| 2026-05-03 21:31 | 61.26902 | 11.47981 | 25776 ft | 457 kts | 354° |
| 2026-05-03 21:31 | 61.30097 | 11.48073 | 25775 ft | 462 kts | 354° |
| 2026-05-03 21:31 | 61.33327 | 11.48160 | 25775 ft | 464 kts | 354° |
| 2026-05-03 21:32 | 61.36512 | 11.48253 | 25772 ft | 465 kts | 354° |
| 2026-05-03 21:32 | 61.39745 | 11.48344 | 25772 ft | 464 kts | 354° |
| 2026-05-03 21:32 | 61.42976 | 11.48387 | 25771 ft | 464 kts | 354° |
| 2026-05-03 21:32 | 61.46206 | 11.48400 | 25806 ft | 464 kts | 353° |
| 2026-05-03 21:33 | 61.49436 | 11.48397 | 25793 ft | 464 kts | 353° |
| 2026-05-03 21:33 | 61.52663 | 11.48386 | 25784 ft | 464 kts | 353° |
| 2026-05-03 21:33 | 61.55897 | 11.48376 | 25785 ft | 465 kts | 353° |
| 2026-05-03 21:33 | 61.59133 | 11.48376 | 25778 ft | 464 kts | 353° |
| 2026-05-03 21:34 | 61.62362 | 11.48384 | 25775 ft | 464 kts | 353° |
| 2026-05-03 21:34 | 61.65590 | 11.48394 | 25770 ft | 463 kts | 353° |
| 2026-05-03 21:34 | 61.68814 | 11.48413 | 25763 ft | 463 kts | 353° |
| 2026-05-03 21:34 | 61.72041 | 11.48439 | 25759 ft | 463 kts | 353° |
| 2026-05-03 21:35 | 61.75269 | 11.48460 | 25803 ft | 463 kts | 353° |
| 2026-05-03 21:35 | 61.78494 | 11.48470 | 25791 ft | 463 kts | 353° |
| 2026-05-03 21:35 | 61.81716 | 11.48479 | 25796 ft | 462 kts | 353° |
| 2026-05-03 21:35 | 61.84908 | 11.48493 | 25774 ft | 457 kts | 352° |
| 2026-05-03 21:36 | 61.88082 | 11.48513 | 25755 ft | 454 kts | 352° |
| 2026-05-03 21:36 | 61.91229 | 11.48529 | 25754 ft | 453 kts | 352° |
| 2026-05-03 21:36 | 61.94379 | 11.48537 | 25741 ft | 452 kts | 352° |
| 2026-05-03 21:36 | 61.97531 | 11.48544 | 25559 ft | 452 kts | 352° |
| 2026-05-03 21:37 | 62.00659 | 11.48391 | 25307 ft | 445 kts | 347° |
| 2026-05-03 21:37 | 62.03721 | 11.47684 | 25051 ft | 441 kts | 345° |
| 2026-05-03 21:37 | 62.06767 | 11.46963 | 24871 ft | 440 kts | 345° |
| 2026-05-03 21:37 | 62.09805 | 11.46255 | 24630 ft | 438 kts | 345° |
| 2026-05-03 21:38 | 62.12813 | 11.45562 | 24283 ft | 433 kts | 345° |
| 2026-05-03 21:38 | 62.15807 | 11.44876 | 23722 ft | 432 kts | 345° |
| 2026-05-03 21:38 | 62.18793 | 11.44187 | 23149 ft | 430 kts | 345° |
| 2026-05-03 21:38 | 62.21754 | 11.43504 | 22590 ft | 424 kts | 345° |
| 2026-05-03 21:39 | 62.24673 | 11.42823 | 22085 ft | 419 kts | 345° |
| 2026-05-03 21:39 | 62.27550 | 11.42147 | 21599 ft | 414 kts | 345° |
| 2026-05-03 21:39 | 62.30405 | 11.41479 | 21137 ft | 409 kts | 345° |
| 2026-05-03 21:39 | 62.33222 | 11.40817 | 20674 ft | 406 kts | 345° |
| 2026-05-03 21:40 | 62.36005 | 11.40167 | 20231 ft | 400 kts | 346° |
| 2026-05-03 21:40 | 62.37848 | 11.39741 | 19967 ft | 396 kts | 346° |
| 2026-05-03 21:40 | 62.40833 | 11.39205 | 19451 ft | 393 kts | 347° |
| 2026-05-03 21:40 | 62.43515 | 11.38692 | 19092 ft | 382 kts | 346° |
| 2026-05-03 21:41 | 62.46332 | 11.38027 | 18635 ft | 380 kts | 345° |
| 2026-05-03 21:41 | 62.48998 | 11.37292 | 18239 ft | 374 kts | 343° |
| 2026-05-03 21:41 | 62.51565 | 11.36523 | 17790 ft | 371 kts | 344° |
| 2026-05-03 21:41 | 62.54115 | 11.35822 | 17365 ft | 369 kts | 346° |
| 2026-05-03 21:42 | 62.56396 | 11.35241 | 16997 ft | 368 kts | 346° |
| 2026-05-03 21:42 | 62.58425 | 11.34704 | 16581 ft | 365 kts | 346° |
| 2026-05-03 21:42 | 62.61940 | 11.33891 | 15977 ft | 362 kts | 347° |
| 2026-05-03 21:42 | 62.64430 | 11.33337 | 15557 ft | 358 kts | 347° |
| 2026-05-03 21:43 | 62.66894 | 11.32773 | 15126 ft | 355 kts | 347° |
| 2026-05-03 21:43 | 62.69344 | 11.32194 | 14703 ft | 354 kts | 347° |
| 2026-05-03 21:43 | 62.71787 | 11.31603 | 14253 ft | 351 kts | 347° |
| 2026-05-03 21:43 | 62.72608 | 11.31404 | 14113 ft | 350 kts | 347° |
| 2026-05-03 21:44 | 62.76701 | 11.30393 | 13354 ft | 345 kts | 348° |
| 2026-05-03 21:44 | 62.79087 | 11.29812 | 12883 ft | 346 kts | 348° |
| 2026-05-03 21:44 | 62.80699 | 11.29413 | 12397 ft | 355 kts | 348° |
| 2026-05-03 21:44 | 62.83659 | 11.28644 | 11831 ft | 357 kts | 348° |
| 2026-05-03 21:45 | 62.86136 | 11.28105 | 11340 ft | 357 kts | 351° |
| 2026-05-03 21:45 | 62.88610 | 11.27735 | 10862 ft | 355 kts | 352° |
| 2026-05-03 21:45 | 62.90240 | 11.27535 | 10627 ft | 351 kts | 352° |
| 2026-05-03 21:45 | 62.93559 | 11.27124 | 10486 ft | 335 kts | 351° |
| 2026-05-03 21:46 | 62.95107 | 11.26927 | 10391 ft | 325 kts | 351° |
| 2026-05-03 21:46 | 62.97622 | 11.26600 | 10240 ft | 312 kts | 351° |
| 2026-05-03 21:46 | 62.99749 | 11.26299 | 10140 ft | 300 kts | 351° |
| 2026-05-03 21:46 | 63.01794 | 11.25996 | 10004 ft | 289 kts | 351° |
| 2026-05-03 21:47 | 63.03721 | 11.25698 | 9893 ft | 279 kts | 350° |
| 2026-05-03 21:47 | 63.05483 | 11.25400 | 9783 ft | 272 kts | 348° |
| 2026-05-03 21:47 | 63.07788 | 11.24925 | 9622 ft | 259 kts | 349° |
| 2026-05-03 21:47 | 63.08393 | 11.24816 | 9516 ft | 256 kts | 349° |
| 2026-05-03 21:48 | 63.10431 | 11.24426 | 9085 ft | 249 kts | 348° |
| 2026-05-03 21:48 | 63.13009 | 11.24989 | 8639 ft | 242 kts | 2° |
| 2026-05-03 21:48 | 63.14251 | 11.25073 | 8264 ft | 238 kts | 351° |
| 2026-05-03 21:48 | 63.15861 | 11.24683 | 8074 ft | 227 kts | 346° |
| 2026-05-03 21:49 | 63.17384 | 11.24194 | 7951 ft | 215 kts | 346° |
| 2026-05-03 21:49 | 63.18841 | 11.23757 | 7605 ft | 210 kts | 347° |
| 2026-05-03 21:49 | 63.19331 | 11.23623 | 7487 ft | 208 kts | 347° |
| 2026-05-03 21:49 | 63.21928 | 11.23091 | 6778 ft | 207 kts | 349° |
| 2026-05-03 21:50 | 63.23386 | 11.22791 | 6220 ft | 213 kts | 349° |
| 2026-05-03 21:50 | 63.24880 | 11.22479 | 5623 ft | 217 kts | 351° |
| 2026-05-03 21:50 | 63.26428 | 11.22187 | 5227 ft | 211 kts | 352° |
| 2026-05-03 21:50 | 63.27853 | 11.21881 | 5048 ft | 203 kts | 352° |
| 2026-05-03 21:51 | 63.28867 | 11.21678 | 4948 ft | 202 kts | 353° |
| 2026-05-03 21:51 | 63.30334 | 11.21428 | 4756 ft | 202 kts | 349° |
| 2026-05-03 21:51 | 63.31992 | 11.21233 | 4568 ft | 202 kts | 356° |
| 2026-05-03 21:51 | 63.33396 | 11.21244 | 4393 ft | 201 kts | 357° |
| 2026-05-03 21:52 | 63.34795 | 11.21234 | 4196 ft | 201 kts | 356° |
| 2026-05-03 21:52 | 63.36188 | 11.21200 | 3902 ft | 199 kts | 356° |
| 2026-05-03 21:52 | 63.37552 | 11.21192 | 3626 ft | 193 kts | 358° |
| 2026-05-03 21:52 | 63.38878 | 11.21212 | 3341 ft | 189 kts | 357° |
| 2026-05-03 21:53 | 63.40183 | 11.20854 | 2945 ft | 189 kts | 344° |
| 2026-05-03 21:53 | 63.41359 | 11.19921 | 2707 ft | 173 kts | 332° |
| 2026-05-03 21:53 | 63.42356 | 11.18692 | 2530 ft | 158 kts | 327° |
| 2026-05-03 21:53 | 63.43272 | 11.17442 | 2345 ft | 152 kts | 326° |
| 2026-05-03 21:54 | 63.43566 | 11.17034 | 2270 ft | 152 kts | 325° |
| 2026-05-03 21:54 | 63.44792 | 11.15059 | 1915 ft | 148 kts | 310° |
| 2026-05-03 21:54 | 63.45194 | 11.13841 | 1857 ft | 146 kts | 298° |
| 2026-05-03 21:54 | 63.45506 | 11.10761 | 1504 ft | 144 kts | 235° |
| 2026-05-03 21:55 | 63.45098 | 11.08411 | 1685 ft | 177 kts | 271° |
| 2026-05-03 21:55 | 63.45152 | 11.05819 | 2380 ft | 132 kts | 280° |